createdAt,value
2023-05-18T00:00:54.181Z,89.40
2023-05-18T00:03:57.670Z,89.50
2023-05-18T00:07:03.343Z,88.60
2023-05-18T00:10:07.451Z,89.00
2023-05-18T00:13:10.610Z,88.70
2023-05-18T00:16:16.110Z,88.60
2023-05-18T00:19:20.378Z,88.60
2023-05-18T00:22:23.628Z,88.90
2023-05-18T00:25:26.725Z,88.90
2023-05-18T00:28:30.531Z,88.50
2023-05-18T00:31:36.767Z,88.50
2023-05-18T00:34:39.949Z,88.90
2023-05-18T00:37:43.055Z,89.00
2023-05-18T00:40:46.181Z,89.10
2023-05-18T00:43:49.347Z,89.20
2023-05-18T00:46:53.908Z,89.60
2023-05-18T00:49:57.122Z,89.50
2023-05-18T00:53:00.818Z,89.70
2023-05-18T00:56:04.031Z,89.50
2023-05-18T00:59:07.206Z,89.60
2023-05-18T01:02:12.222Z,89.50
2023-05-18T01:05:18.106Z,89.60
2023-05-18T01:08:21.293Z,89.20
2023-05-18T01:11:34.971Z,89.60
2023-05-18T01:14:45.639Z,89.60
2023-05-18T01:18:05.372Z,89.70
2023-05-18T01:21:19.667Z,89.60
2023-05-18T01:24:33.414Z,89.60
2023-05-18T01:27:42.439Z,89.80
2023-05-18T01:30:46.816Z,90.00
2023-05-18T01:33:49.989Z,90.00
2023-05-18T01:36:53.114Z,90.00
2023-05-18T01:39:56.404Z,89.80
2023-05-18T01:43:05.616Z,89.60
2023-05-18T01:46:18.648Z,89.90
2023-05-18T01:49:28.253Z,90.00
2023-05-18T01:52:36.445Z,89.80
2023-05-18T01:55:41.359Z,90.30
2023-05-18T01:58:46.238Z,90.00
2023-05-18T02:01:49.455Z,90.10
2023-05-18T02:04:52.654Z,90.30
2023-05-18T02:07:55.988Z,90.30
2023-05-18T02:10:59.192Z,90.40
2023-05-18T02:14:03.742Z,90.30
2023-05-18T02:17:07.763Z,90.40
2023-05-18T02:20:11.559Z,90.80
2023-05-18T02:23:14.752Z,90.50
2023-05-18T02:26:17.880Z,90.40
2023-05-18T02:29:22.370Z,90.60
2023-05-18T02:32:25.562Z,90.80
2023-05-18T02:35:29.031Z,90.70
2023-05-18T02:38:32.325Z,90.60
2023-05-18T02:41:35.659Z,90.70
2023-05-18T02:44:40.205Z,91.20
2023-05-18T02:47:44.095Z,91.00
2023-05-18T02:50:49.825Z,90.90
2023-05-18T02:53:53.312Z,91.00
2023-05-18T02:56:58.928Z,91.00
2023-05-18T03:00:09.828Z,91.00
2023-05-18T03:03:16.313Z,91.30
2023-05-18T03:06:22.394Z,91.50
2023-05-18T03:09:25.638Z,91.40
2023-05-18T03:12:28.823Z,91.60
2023-05-18T03:15:33.633Z,91.60
2023-05-18T03:18:36.953Z,91.50
2023-05-18T03:21:40.123Z,91.60
2023-05-18T03:24:43.303Z,91.90
2023-05-18T03:27:46.800Z,92.00
2023-05-18T03:30:51.388Z,92.00
2023-05-18T03:33:54.548Z,92.10
2023-05-18T03:36:58.217Z,92.10
2023-05-18T03:40:10.319Z,92.10
2023-05-18T03:43:13.496Z,92.30
2023-05-18T03:46:18.087Z,92.30
2023-05-18T03:49:21.494Z,92.40
2023-05-18T03:52:24.703Z,92.40
2023-05-18T03:55:28.005Z,92.40
2023-05-18T03:58:31.210Z,92.40
2023-05-18T04:01:35.774Z,92.40
2023-05-18T04:04:42.078Z,92.40
2023-05-18T04:07:46.816Z,92.40
2023-05-18T04:10:50.017Z,92.40
2023-05-18T04:13:53.151Z,92.50
2023-05-18T04:16:58.424Z,92.60
2023-05-18T04:20:04.150Z,92.40
2023-05-18T04:23:09.740Z,92.20
2023-05-18T04:26:12.877Z,92.20
2023-05-18T04:29:17.481Z,92.40
2023-05-18T04:32:22.069Z,92.50
2023-05-18T04:35:26.103Z,92.50
2023-05-18T04:38:29.259Z,92.40
2023-05-18T04:41:34.225Z,92.20
2023-05-18T04:44:39.103Z,92.30
2023-05-18T04:47:46.814Z,92.80
2023-05-18T04:50:50.252Z,93.10
2023-05-18T04:53:53.453Z,92.90
2023-05-18T04:56:56.820Z,92.80
2023-05-18T04:59:59.924Z,93.00
2023-05-18T05:03:04.721Z,93.10
2023-05-18T05:06:08.500Z,92.80
2023-05-18T05:09:14.161Z,92.90
2023-05-18T05:12:18.486Z,92.80
2023-05-18T05:15:22.098Z,92.90
2023-05-18T05:18:26.564Z,92.40
2023-05-18T05:21:29.807Z,92.50
2023-05-18T05:24:32.944Z,92.60
2023-05-18T05:27:36.256Z,92.60
2023-05-18T05:30:39.476Z,92.70
2023-05-18T05:33:45.454Z,92.30
2023-05-18T05:36:48.626Z,92.10
2023-05-18T05:39:52.906Z,92.10
2023-05-18T05:42:56.036Z,91.70
2023-05-18T05:45:59.169Z,91.40
2023-05-18T05:49:04.167Z,91.30
2023-05-18T05:52:07.907Z,91.00
2023-05-18T05:55:11.192Z,90.90
2023-05-18T05:58:14.410Z,91.10
2023-05-18T06:01:17.745Z,90.50
2023-05-18T06:04:22.353Z,90.20
2023-05-18T06:07:25.611Z,87.60
2023-05-18T06:10:29.066Z,85.40
2023-05-18T06:13:32.236Z,83.80
2023-05-18T06:16:35.402Z,81.40
2023-05-18T06:19:40.035Z,79.40
2023-05-18T06:22:43.815Z,76.10
2023-05-18T06:25:47.344Z,73.40
2023-05-18T06:28:50.758Z,72.40
2023-05-18T06:31:53.991Z,73.20
2023-05-18T06:34:58.555Z,72.70
2023-05-18T06:38:01.748Z,72.70
2023-05-18T06:41:04.980Z,73.00
2023-05-18T06:44:08.108Z,73.20
2023-05-18T06:47:11.461Z,72.90
2023-05-18T06:50:16.007Z,73.80
2023-05-18T06:53:19.225Z,74.00
2023-05-18T06:56:22.463Z,72.90
2023-05-18T06:59:25.741Z,73.70
2023-05-18T07:02:29.234Z,73.70
2023-05-18T07:05:34.692Z,73.20
2023-05-18T07:08:40.650Z,73.70
2023-05-18T07:11:45.547Z,72.10
2023-05-18T07:14:48.789Z,71.00
2023-05-18T07:17:51.954Z,71.50
2023-05-18T07:20:56.455Z,72.20
2023-05-18T07:23:59.690Z,72.40
2023-05-18T07:27:02.887Z,71.70
2023-05-18T07:30:08.077Z,71.70
2023-05-18T07:33:11.378Z,71.20
2023-05-18T07:36:16.201Z,71.30
2023-05-18T07:39:19.841Z,70.70
2023-05-18T07:42:23.172Z,70.00
2023-05-18T07:45:26.813Z,69.50
2023-05-18T07:48:29.934Z,68.30
2023-05-18T07:51:34.574Z,66.10
2023-05-18T07:54:37.770Z,64.90
2023-05-18T07:57:41.446Z,64.40
2023-05-18T08:00:45.396Z,61.70
2023-05-18T08:03:48.771Z,65.20
2023-05-18T08:06:56.323Z,63.80
2023-05-18T08:09:59.467Z,62.30
2023-05-18T08:13:02.683Z,62.80
2023-05-18T08:16:11.972Z,63.60
2023-05-18T08:19:15.742Z,63.70
2023-05-18T08:22:20.858Z,63.70
2023-05-18T08:25:24.209Z,64.40
2023-05-18T08:28:27.912Z,63.50
2023-05-18T08:31:31.080Z,60.90
2023-05-18T08:34:34.195Z,61.50
2023-05-18T08:37:39.916Z,60.20
2023-05-18T08:40:48.444Z,61.60
2023-05-18T08:44:00.451Z,60.90
2023-05-18T08:47:05.065Z,60.80
2023-05-18T08:50:13.586Z,60.80
2023-05-18T08:53:19.677Z,61.50
2023-05-18T08:56:25.037Z,62.30
2023-05-18T08:59:31.961Z,62.80
2023-05-18T09:02:35.389Z,63.40
2023-05-18T09:05:40.089Z,64.10
2023-05-18T09:08:46.943Z,62.60
2023-05-18T09:11:51.329Z,61.90
2023-05-18T09:14:55.543Z,62.90
2023-05-18T09:17:58.701Z,60.10
2023-05-18T09:21:01.958Z,59.70
2023-05-18T09:24:07.232Z,59.20
2023-05-18T09:27:10.851Z,59.60
2023-05-18T09:30:14.704Z,58.50
2023-05-18T09:33:19.220Z,62.00
2023-05-18T09:36:28.452Z,60.30
2023-05-18T09:39:33.038Z,55.80
2023-05-18T09:42:39.706Z,54.80
2023-05-18T09:45:45.168Z,54.50
2023-05-18T09:48:51.593Z,54.90
2023-05-18T09:51:54.787Z,54.90
2023-05-18T09:55:02.571Z,54.10
2023-05-18T09:58:08.182Z,53.70
2023-05-18T10:01:11.395Z,52.00
2023-05-18T10:04:14.538Z,51.40
2023-05-18T10:07:18.526Z,51.20
2023-05-18T10:10:24.922Z,50.10
2023-05-18T10:13:31.760Z,49.20
2023-05-18T10:16:35.221Z,49.10
2023-05-18T10:19:41.889Z,48.30
2023-05-18T10:22:47.042Z,48.70
2023-05-18T10:25:53.031Z,48.00
2023-05-18T10:28:57.922Z,47.90
2023-05-18T10:32:05.996Z,48.20
2023-05-18T10:35:11.861Z,48.50
2023-05-18T10:38:16.340Z,48.70
2023-05-18T10:41:23.453Z,48.40
2023-05-18T10:44:26.996Z,48.40
2023-05-18T10:47:30.985Z,48.70
2023-05-18T10:50:34.755Z,48.90
2023-05-18T10:53:39.324Z,49.40
2023-05-18T10:56:47.856Z,49.80
2023-05-18T10:59:51.267Z,49.70
2023-05-18T11:02:55.595Z,49.60
2023-05-18T11:06:08.141Z,50.10
2023-05-18T11:09:24.011Z,49.80
2023-05-18T11:12:28.721Z,50.30
2023-05-18T11:16:06.769Z,50.20
2023-05-18T11:19:11.521Z,49.60
2023-05-18T11:22:14.781Z,50.70
2023-05-18T11:25:45.965Z,50.60
2023-05-18T11:28:53.865Z,50.00
2023-05-18T11:31:57.197Z,50.20
2023-05-18T11:35:00.945Z,51.20
2023-05-18T11:38:10.005Z,50.30
2023-05-18T11:41:29.190Z,49.80
2023-05-18T11:44:33.933Z,49.80
2023-05-18T11:47:38.223Z,49.40
2023-05-18T11:50:47.396Z,49.10
2023-05-18T11:53:50.592Z,49.00
2023-05-18T11:56:54.673Z,49.10
2023-05-18T12:00:00.016Z,50.20
2023-05-18T12:03:04.548Z,51.30
2023-05-18T12:06:08.596Z,51.50
2023-05-18T12:09:11.823Z,52.90
2023-05-18T12:12:17.679Z,55.20
2023-05-18T12:15:25.476Z,57.40
2023-05-18T12:18:30.541Z,59.20
2023-05-18T12:21:36.719Z,61.90
2023-05-18T12:24:40.634Z,62.70
2023-05-18T12:27:45.529Z,64.30
2023-05-18T12:30:50.191Z,66.10
2023-05-18T12:33:56.876Z,66.20
2023-05-18T12:37:02.302Z,66.70
2023-05-18T12:40:07.181Z,67.70
2023-05-18T12:43:10.513Z,70.00
2023-05-18T12:46:15.096Z,71.40
2023-05-18T12:49:20.517Z,71.20
2023-05-18T12:52:23.746Z,70.60
2023-05-18T12:55:26.982Z,70.10
2023-05-18T12:58:30.086Z,69.70
2023-05-18T13:01:43.850Z,69.70
2023-05-18T13:04:47.014Z,71.30
2023-05-18T13:07:50.356Z,70.70
2023-05-18T13:11:05.177Z,70.00
2023-05-18T13:14:15.700Z,69.90
2023-05-18T13:17:24.441Z,70.80
2023-05-18T13:20:36.837Z,69.50
2023-05-18T13:23:41.187Z,70.80
2023-05-18T13:26:44.362Z,72.10
2023-05-18T13:29:47.599Z,73.20
2023-05-18T13:32:52.865Z,75.00
2023-05-18T13:35:56.021Z,74.90
2023-05-18T13:38:59.366Z,75.40
2023-05-18T13:42:03.092Z,75.50
2023-05-18T13:45:07.109Z,75.60
2023-05-18T13:48:14.716Z,75.80
2023-05-18T13:51:18.091Z,76.60
2023-05-18T13:54:21.494Z,76.20
2023-05-18T13:57:26.319Z,75.40
2023-05-18T14:00:29.877Z,75.90
2023-05-18T14:03:36.802Z,76.50
2023-05-18T14:06:40.965Z,76.20
2023-05-18T14:09:44.245Z,75.90
2023-05-18T14:12:47.691Z,75.30
2023-05-18T14:15:50.836Z,75.10
2023-05-18T14:18:55.512Z,75.20
2023-05-18T14:21:58.685Z,75.70
2023-05-18T14:25:02.088Z,76.60
2023-05-18T14:28:05.306Z,77.10
2023-05-18T14:31:08.477Z,76.50
2023-05-18T14:34:13.166Z,76.40
2023-05-18T14:37:16.312Z,76.60
2023-05-18T14:40:19.471Z,76.50
2023-05-18T14:43:22.958Z,76.40
2023-05-18T14:46:26.266Z,76.60
2023-05-18T14:49:30.794Z,76.80
2023-05-18T14:52:33.914Z,77.30
2023-05-18T14:55:37.038Z,78.50
2023-05-18T14:58:41.281Z,77.70
2023-05-18T15:01:44.492Z,76.30
2023-05-18T15:04:49.012Z,76.80
2023-05-18T15:07:52.237Z,76.80
2023-05-18T15:10:55.905Z,77.20
2023-05-18T15:13:59.101Z,76.40
2023-05-18T15:17:02.166Z,76.30
2023-05-18T15:20:08.065Z,76.80
2023-05-18T15:23:11.580Z,76.90
2023-05-18T15:26:14.656Z,77.30
2023-05-18T15:29:17.826Z,77.10
2023-05-18T15:32:21.034Z,77.60
2023-05-18T15:35:25.614Z,78.80
2023-05-18T15:38:29.733Z,78.00
2023-05-18T15:41:34.603Z,78.00
2023-05-18T15:44:37.818Z,78.20
2023-05-18T15:47:42.293Z,77.10
2023-05-18T15:50:47.340Z,77.10
2023-05-18T15:53:50.487Z,78.80
2023-05-18T15:56:54.061Z,79.80
2023-05-18T15:59:57.395Z,80.40
2023-05-18T16:03:00.696Z,81.00
2023-05-18T16:06:05.368Z,81.20
2023-05-18T16:09:08.556Z,81.10
2023-05-18T16:12:11.799Z,81.70
2023-05-18T16:15:14.994Z,81.70
2023-05-18T16:18:18.157Z,81.70
2023-05-18T16:21:23.083Z,81.70
2023-05-18T16:24:26.260Z,81.80
2023-05-18T16:27:29.496Z,81.20
2023-05-18T16:30:32.935Z,82.50
2023-05-18T16:33:36.597Z,82.60
2023-05-18T16:36:41.102Z,82.60
2023-05-18T16:39:44.326Z,83.50
2023-05-18T16:42:48.947Z,83.70
2023-05-18T16:45:52.160Z,82.70
2023-05-18T16:48:55.273Z,83.40
2023-05-18T16:51:59.731Z,84.00
2023-05-18T16:55:03.043Z,84.40
2023-05-18T16:58:06.364Z,85.30
2023-05-18T17:01:19.400Z,86.20
2023-05-18T17:04:30.284Z,86.40
2023-05-18T17:07:35.116Z,86.90
2023-05-18T17:10:38.335Z,87.30
2023-05-18T17:13:41.484Z,87.50
2023-05-18T17:16:46.063Z,87.70
2023-05-18T17:19:49.219Z,87.60
2023-05-18T17:22:53.884Z,87.80
2023-05-18T17:26:06.098Z,87.70
2023-05-18T17:29:10.020Z,88.50
2023-05-18T17:32:13.151Z,87.90
2023-05-18T17:35:16.389Z,88.70
2023-05-18T17:38:22.699Z,89.50
2023-05-18T17:41:26.020Z,90.00
2023-05-18T17:44:29.220Z,90.10
2023-05-18T17:47:32.374Z,90.40
2023-05-18T17:50:37.809Z,90.60
2023-05-18T17:53:43.058Z,90.50
2023-05-18T17:56:46.705Z,90.70
2023-05-18T17:59:49.989Z,91.30
2023-05-18T18:02:53.939Z,91.60
2023-05-18T18:05:57.188Z,91.90
2023-05-18T18:09:01.757Z,91.90
2023-05-18T18:12:05.460Z,91.70
2023-05-18T18:15:10.176Z,91.80
2023-05-18T18:18:13.642Z,92.00
2023-05-18T18:21:17.415Z,92.10
2023-05-18T18:24:23.766Z,92.30
2023-05-18T18:27:28.336Z,92.50
2023-05-18T18:30:32.031Z,92.80
2023-05-18T18:33:35.683Z,93.00
2023-05-18T18:36:39.018Z,93.20
2023-05-18T18:39:43.677Z,93.20
2023-05-18T18:42:48.151Z,93.60
2023-05-18T18:45:51.618Z,93.40
2023-05-18T18:48:55.772Z,93.50
2023-05-18T18:52:00.137Z,93.40
2023-05-18T18:55:09.897Z,93.50
2023-05-18T18:58:13.266Z,93.60
2023-05-18T19:01:17.690Z,93.60
2023-05-18T19:04:21.454Z,93.70
2023-05-18T19:07:24.544Z,93.60
2023-05-18T19:10:33.061Z,93.60
2023-05-18T19:13:36.337Z,93.60
2023-05-18T19:16:39.772Z,93.70
2023-05-18T19:19:43.202Z,93.70
2023-05-18T19:22:46.904Z,93.70
2023-05-18T19:25:51.870Z,93.70
2023-05-18T19:28:55.063Z,93.80
2023-05-18T19:31:58.269Z,93.90
2023-05-18T19:35:01.959Z,94.00
2023-05-18T19:38:05.446Z,94.20
2023-05-18T19:41:10.223Z,94.20
2023-05-18T19:44:14.030Z,94.30
2023-05-18T19:47:17.231Z,94.40
2023-05-18T19:50:20.856Z,94.40
2023-05-18T19:53:24.283Z,94.40
2023-05-18T19:56:28.933Z,94.40
2023-05-18T19:59:32.137Z,94.40
2023-05-18T20:02:35.355Z,94.40
2023-05-18T20:05:38.900Z,94.40
2023-05-18T20:08:42.804Z,94.40
2023-05-18T20:11:47.365Z,94.60
2023-05-18T20:14:51.305Z,94.80
2023-05-18T20:17:54.563Z,95.00
2023-05-18T20:20:57.717Z,94.90
2023-05-18T20:24:01.093Z,94.80
2023-05-18T20:27:05.861Z,94.80
2023-05-18T20:30:10.204Z,94.50
2023-05-18T20:33:14.080Z,94.40
2023-05-18T20:36:17.469Z,94.30
2023-05-18T20:39:20.785Z,94.30
2023-05-18T20:42:31.372Z,94.30
2023-05-18T20:45:36.392Z,94.40
2023-05-18T20:48:39.586Z,94.40
2023-05-18T20:51:42.851Z,94.50
2023-05-18T20:54:46.170Z,94.60
2023-05-18T20:57:51.005Z,94.70
2023-05-18T21:00:55.533Z,94.70
2023-05-18T21:03:59.169Z,94.80
2023-05-18T21:07:02.520Z,94.80
2023-05-18T21:10:06.269Z,94.90
2023-05-18T21:13:10.911Z,94.90
2023-05-18T21:16:14.205Z,95.00
2023-05-18T21:19:17.515Z,94.90
2023-05-18T21:22:20.983Z,95.20
2023-05-18T21:25:24.497Z,95.20
2023-05-18T21:28:29.070Z,95.30
2023-05-18T21:31:32.278Z,95.30
2023-05-18T21:34:35.599Z,95.10
2023-05-18T21:37:38.830Z,94.90
2023-05-18T21:40:43.847Z,94.90
2023-05-18T21:43:48.683Z,94.80
2023-05-18T21:46:55.313Z,94.90
2023-05-18T21:49:58.525Z,95.40
2023-05-18T21:53:02.944Z,95.00
2023-05-18T21:56:06.705Z,95.10
2023-05-18T21:59:11.290Z,95.00
2023-05-18T22:02:14.442Z,94.90
2023-05-18T22:05:17.725Z,95.30
2023-05-18T22:08:21.522Z,95.10
2023-05-18T22:11:24.646Z,95.10
2023-05-18T22:14:31.018Z,95.10
2023-05-18T22:17:34.365Z,95.20
2023-05-18T22:20:39.038Z,95.30
2023-05-18T22:23:42.467Z,95.20
2023-05-18T22:26:46.265Z,95.20
2023-05-18T22:29:51.022Z,95.20
2023-05-18T22:32:54.204Z,95.00
2023-05-18T22:35:57.644Z,95.10
2023-05-18T22:39:00.770Z,95.10
2023-05-18T22:42:03.929Z,95.10
2023-05-18T22:45:11.630Z,95.10
2023-05-18T22:48:14.884Z,95.20
2023-05-18T22:51:18.761Z,95.30
2023-05-18T22:54:22.657Z,95.40
2023-05-18T22:57:25.766Z,95.40
2023-05-18T23:00:30.675Z,95.50
2023-05-18T23:03:33.975Z,95.40
2023-05-18T23:06:37.189Z,95.50
2023-05-18T23:09:40.388Z,95.50
2023-05-18T23:12:45.648Z,95.90
2023-05-18T23:15:50.276Z,95.90
2023-05-18T23:18:53.723Z,96.10
2023-05-18T23:21:57.261Z,96.30
2023-05-18T23:25:00.435Z,96.00
2023-05-18T23:28:03.571Z,96.00
2023-05-18T23:31:08.083Z,96.00
2023-05-18T23:34:11.719Z,96.00
2023-05-18T23:37:18.427Z,96.00
2023-05-18T23:40:22.972Z,95.90
2023-05-18T23:43:26.485Z,95.80
2023-05-18T23:46:31.884Z,95.80
2023-05-18T23:49:35.588Z,95.90
2023-05-18T23:52:40.171Z,95.90
2023-05-18T23:55:43.661Z,95.90
2023-05-18T23:58:48.044Z,95.90
